Time;durP1;ratioP1;P1;durP2;ratioP2;P2;SDS_P1;SDS_P2;PMS_P1;PMS_P2;Temp;Humidity;BMP_temperature;BMP_pressure;BME280_temperature;BME280_humidity;BME280_pressure;Samples;Min_cycle;Max_cycle;Signal;HPM_P1;HPM_P2
2021/05/30 00:00:51;;;;;;;30.13;19.77;;;10.10;99.90;;;;;;5072474;28;20264;-58
2021/05/30 00:03:18;;;;;;;28.77;20.13;;;10.00;99.90;;;;;;5072581;28;20210;-57
2021/05/30 00:05:45;;;;;;;30.83;21.77;;;10.00;99.90;;;;;;5072056;28;20758;-60
2021/05/30 00:08:12;;;;;;;30.37;20.87;;;10.00;99.90;;;;;;5072571;28;20214;-56
2021/05/30 00:10:39;;;;;;;26.23;20.33;;;9.90;99.90;;;;;;5076871;28;20208;-59
2021/05/30 00:13:06;;;;;;;32.07;20.40;;;9.90;99.90;;;;;;5074777;28;20207;-57
2021/05/30 00:15:32;;;;;;;31.87;22.43;;;9.90;99.90;;;;;;5072380;28;20224;-57
2021/05/30 00:17:58;;;;;;;32.03;21.60;;;9.90;99.90;;;;;;5072257;28;20251;-58
2021/05/30 00:20:24;;;;;;;33.27;21.97;;;9.90;99.90;;;;;;5071856;28;20253;-57
2021/05/30 00:22:50;;;;;;;31.77;23.43;;;9.80;99.90;;;;;;5071947;28;20206;-58
2021/05/30 00:25:16;;;;;;;30.70;22.07;;;9.80;99.90;;;;;;5072400;28;20234;-58
2021/05/30 00:27:43;;;;;;;32.27;21.90;;;9.80;99.90;;;;;;5070388;28;20210;-58
2021/05/30 00:30:11;;;;;;;29.50;21.27;;;9.80;99.90;;;;;;5072193;28;20214;-59
2021/05/30 00:32:37;;;;;;;27.20;20.33;;;9.70;99.90;;;;;;5072127;28;20233;-56
2021/05/30 00:35:04;;;;;;;28.30;21.13;;;9.70;99.90;;;;;;5071554;28;20301;-55
2021/05/30 00:37:30;;;;;;;34.40;21.73;;;9.70;99.90;;;;;;5072049;28;20268;-54
2021/05/30 00:39:56;;;;;;;32.73;22.47;;;9.70;99.90;;;;;;5071489;28;20666;-57
2021/05/30 00:42:22;;;;;;;33.47;22.43;;;9.60;99.90;;;;;;5071866;28;20212;-59
2021/05/30 00:44:48;;;;;;;31.33;21.87;;;9.60;99.90;;;;;;5070016;28;20714;-58
2021/05/30 00:47:15;;;;;;;32.90;23.37;;;9.60;99.90;;;;;;5071927;28;20260;-58
2021/05/30 00:49:41;;;;;;;34.93;23.10;;;9.60;99.90;;;;;;5071733;28;20264;-54
2021/05/30 00:52:08;;;;;;;30.53;22.50;;;9.60;99.90;;;;;;5070776;28;20217;-58
2021/05/30 00:54:37;;;;;;;35.87;23.13;;;9.50;99.90;;;;;;5071106;28;20217;-58
2021/05/30 00:57:06;;;;;;;35.63;23.37;;;9.50;99.90;;;;;;5071870;28;20213;-58
2021/05/30 00:59:32;;;;;;;32.50;22.83;;;9.50;99.90;;;;;;5071744;28;20211;-57
2021/05/30 01:01:59;;;;;;;34.63;23.57;;;9.50;99.90;;;;;;5070019;28;20210;-58
2021/05/30 01:04:26;;;;;;;34.63;23.50;;;9.40;99.90;;;;;;5071850;28;20242;-58
2021/05/30 01:06:55;;;;;;;33.13;23.53;;;9.40;99.90;;;;;;5071152;28;20651;-56
2021/05/30 01:09:23;;;;;;;32.47;22.67;;;9.40;99.90;;;;;;5071945;28;20216;-58
2021/05/30 01:11:50;;;;;;;32.90;23.40;;;9.40;99.90;;;;;;5071466;28;20214;-58
2021/05/30 01:14:17;;;;;;;35.33;23.87;;;9.40;99.90;;;;;;5071325;28;20275;-58
2021/05/30 01:16:43;;;;;;;34.20;22.80;;;9.40;99.90;;;;;;5077519;28;20225;-58
2021/05/30 01:19:11;;;;;;;38.03;24.63;;;9.40;99.90;;;;;;5071420;28;20592;-58
2021/05/30 01:21:38;;;;;;;38.43;24.40;;;9.30;99.90;;;;;;5071104;28;20241;-59
2021/05/30 01:24:06;;;;;;;36.63;23.43;;;9.30;99.90;;;;;;5071653;28;20227;-58
2021/05/30 01:26:33;;;;;;;39.03;24.43;;;9.30;99.90;;;;;;5071340;28;20239;-57
2021/05/30 01:28:59;;;;;;;32.77;23.67;;;9.30;99.90;;;;;;5071307;28;20205;-57
2021/05/30 01:31:25;;;;;;;35.70;23.80;;;9.30;99.90;;;;;;5071176;28;20255;-58
2021/05/30 01:33:51;;;;;;;34.70;23.93;;;9.30;1.00;;;;;;5069859;28;20339;-57
2021/05/30 01:36:17;;;;;;;35.70;24.60;;;9.30;1.00;;;;;;5070666;28;20744;-58
2021/05/30 01:38:44;;;;;;;39.70;25.87;;;9.30;1.00;;;;;;5071539;28;20214;-57
2021/05/30 01:41:11;;;;;;;39.17;25.80;;;9.20;1.00;;;;;;5071297;28;20270;-58
2021/05/30 01:43:37;;;;;;;38.23;26.27;;;9.20;1.00;;;;;;5071203;28;20626;-58
2021/05/30 01:46:03;;;;;;;42.17;25.90;;;9.10;1.00;;;;;;5071027;28;20231;-55
2021/05/30 01:48:29;;;;;;;37.87;25.93;;;9.10;1.00;;;;;;5076030;28;20228;-58
2021/05/30 01:50:56;;;;;;;39.23;26.90;;;9.10;1.00;;;;;;5073439;28;20206;-58
2021/05/30 01:53:33;;;;;;;37.33;25.23;;;9.00;1.00;;;;;;5071560;28;20694;-56
2021/05/30 01:58:44;;;;;;;43.73;27.50;;;9.00;1.00;;;;;;5071009;28;20680;-56
2021/05/30 02:01:13;;;;;;;40.17;25.63;;;9.00;1.00;;;;;;5070683;28;20287;-57
2021/05/30 02:03:40;;;;;;;41.57;27.77;;;9.00;1.00;;;;;;5072416;28;20205;-58
2021/05/30 02:06:07;;;;;;;43.67;29.77;;;8.90;1.00;;;;;;5073133;28;20291;-57
2021/05/30 02:08:34;;;;;;;46.37;28.53;;;8.90;1.00;;;;;;5074466;28;20207;-56
2021/05/30 02:11:00;;;;;;;42.87;29.20;;;8.90;1.00;;;;;;5074507;28;20254;-57
2021/05/30 02:13:28;;;;;;;44.87;28.63;;;8.90;1.00;;;;;;5074631;28;20210;-57
2021/05/30 02:15:55;;;;;;;45.23;27.03;;;8.90;1.00;;;;;;5074311;28;20231;-57
2021/05/30 02:18:22;;;;;;;45.10;28.23;;;8.90;1.00;;;;;;5074434;28;20225;-55
2021/05/30 02:20:48;;;;;;;40.97;26.87;;;8.80;1.00;;;;;;5075408;28;20208;-58
2021/05/30 02:23:15;;;;;;;45.80;28.40;;;8.80;1.00;;;;;;5072840;28;20665;-56
2021/05/30 02:25:42;;;;;;;43.93;28.43;;;8.80;1.00;;;;;;5074283;28;20244;-57
2021/05/30 02:28:08;;;;;;;41.87;26.80;;;8.70;1.00;;;;;;5074147;28;20201;-56
2021/05/30 02:30:34;;;;;;;40.00;26.90;;;8.70;1.00;;;;;;5073674;28;20677;-56
2021/05/30 02:33:03;;;;;;;44.47;27.30;;;8.70;1.00;;;;;;5074570;28;20205;-59
2021/05/30 02:35:29;;;;;;;42.53;28.00;;;8.70;1.00;;;;;;5074185;28;20221;-57
2021/05/30 02:37:55;;;;;;;41.43;27.37;;;8.60;1.00;;;;;;5074284;28;20205;-57
2021/05/30 02:40:21;;;;;;;48.90;30.10;;;8.60;1.00;;;;;;5072324;28;20220;-58
2021/05/30 02:42:48;;;;;;;48.53;28.83;;;8.60;1.00;;;;;;5073960;28;20201;-58
2021/05/30 02:45:14;;;;;;;50.83;31.07;;;8.60;1.00;;;;;;5074007;28;20244;-58
2021/05/30 02:47:40;;;;;;;52.40;31.67;;;8.50;1.00;;;;;;5073630;28;20673;-59
2021/05/30 02:50:08;;;;;;;48.97;30.27;;;8.50;1.00;;;;;;5073521;28;20205;-57
2021/05/30 02:52:34;;;;;;;50.67;31.57;;;8.50;1.00;;;;;;5073941;28;20201;-59
2021/05/30 02:55:00;;;;;;;48.77;30.70;;;8.50;1.00;;;;;;5071994;28;20279;-57
2021/05/30 02:57:26;;;;;;;51.87;31.53;;;8.50;1.00;;;;;;5074145;28;20209;-54
2021/05/30 02:59:53;;;;;;;51.43;30.93;;;8.50;1.00;;;;;;5073945;28;20210;-54
2021/05/30 03:02:19;;;;;;;48.10;31.23;;;8.40;1.00;;;;;;5073989;28;20209;-53
2021/05/30 03:04:45;;;;;;;50.47;30.37;;;8.40;1.00;;;;;;5073929;28;20228;-56
2021/05/30 03:07:12;;;;;;;51.23;29.53;;;8.40;1.00;;;;;;5074232;28;20746;-57
2021/05/30 03:09:38;;;;;;;48.97;30.60;;;8.40;1.00;;;;;;5075657;28;20315;-58
2021/05/30 03:12:05;;;;;;;45.63;29.27;;;8.40;1.00;;;;;;5075106;28;20232;-58
2021/05/30 03:14:32;;;;;;;45.27;29.00;;;8.40;1.00;;;;;;5074131;28;20247;-56
2021/05/30 03:16:58;;;;;;;47.87;28.13;;;8.30;1.00;;;;;;5073033;28;20232;-52
2021/05/30 03:19:24;;;;;;;45.73;28.77;;;8.30;1.00;;;;;;5073361;28;20211;-51
2021/05/30 03:21:50;;;;;;;49.07;30.10;;;8.30;1.00;;;;;;5073034;28;20224;-53
2021/05/30 03:24:17;;;;;;;45.03;28.90;;;8.30;1.00;;;;;;5074952;28;20216;-51
2021/05/30 03:26:43;;;;;;;42.37;27.13;;;8.40;1.00;;;;;;5074175;28;20229;-52
2021/05/30 03:29:09;;;;;;;47.70;31.30;;;8.30;1.00;;;;;;5074251;28;20692;-58
2021/05/30 03:31:36;;;;;;;51.57;30.23;;;8.30;1.00;;;;;;5073344;28;20201;-58
2021/05/30 03:34:02;;;;;;;50.77;29.33;;;8.30;1.00;;;;;;5073038;28;20586;-59
2021/05/30 03:36:29;;;;;;;55.07;31.17;;;8.20;1.00;;;;;;5073010;28;20593;-58
2021/05/30 03:39:01;;;;;;;46.77;30.07;;;8.20;1.00;;;;;;5072842;28;20209;-58
2021/05/30 03:41:33;;;;;;;48.67;29.73;;;8.20;1.00;;;;;;5072506;28;20201;-58
2021/05/30 03:44:00;;;;;;;48.17;28.83;;;8.20;1.00;;;;;;5072950;28;20216;-59
2021/05/30 03:46:26;;;;;;;47.03;29.50;;;8.20;1.00;;;;;;5072776;28;20713;-58
2021/05/30 03:48:52;;;;;;;49.87;29.00;;;8.20;1.00;;;;;;5072993;28;20254;-57
2021/05/30 03:51:18;;;;;;;47.30;30.43;;;8.20;1.00;;;;;;5072168;28;20212;-58
2021/05/30 03:53:44;;;;;;;46.40;28.93;;;8.20;1.00;;;;;;5072625;28;20208;-58
2021/05/30 03:56:10;;;;;;;47.47;30.13;;;8.20;1.00;;;;;;5072663;28;20270;-55
2021/05/30 03:58:37;;;;;;;48.53;30.67;;;8.20;1.00;;;;;;5072795;28;20205;-58
2021/05/30 04:01:04;;;;;;;49.77;31.30;;;8.20;1.00;;;;;;5071966;28;20213;-58
2021/05/30 04:03:30;;;;;;;46.80;28.87;;;8.20;1.00;;;;;;5072733;28;20213;-58
2021/05/30 04:05:56;;;;;;;50.43;29.53;;;8.20;1.00;;;;;;5072602;28;20225;-58
2021/05/30 04:08:23;;;;;;;46.17;29.67;;;8.30;1.00;;;;;;5072226;28;20205;-55
2021/05/30 04:10:49;;;;;;;49.97;28.93;;;8.30;1.00;;;;;;5072235;28;20212;-57
2021/05/30 04:13:16;;;;;;;45.97;29.00;;;8.40;1.00;;;;;;5073029;28;20208;-58
2021/05/30 04:15:43;;;;;;;45.53;30.07;;;8.40;1.00;;;;;;5072683;28;20274;-56
2021/05/30 04:18:09;;;;;;;47.00;29.77;;;8.40;1.00;;;;;;5072593;28;20211;-56
2021/05/30 04:20:35;;;;;;;52.20;30.53;;;8.40;1.00;;;;;;5072056;28;20673;-54
2021/05/30 04:23:01;;;;;;;53.03;30.93;;;8.50;1.00;;;;;;5072408;28;20209;-57
2021/05/30 04:25:27;;;;;;;50.63;31.03;;;8.50;1.00;;;;;;5072544;28;20240;-57
2021/05/30 04:27:53;;;;;;;51.40;31.33;;;8.60;1.00;;;;;;5072369;28;20201;-57
2021/05/30 04:30:20;;;;;;;48.20;30.63;;;8.60;1.00;;;;;;5072051;28;20251;-57
2021/05/30 04:32:47;;;;;;;49.50;30.13;;;8.60;1.00;;;;;;5072046;28;20205;-56
2021/05/30 04:35:14;;;;;;;51.20;30.87;;;8.60;1.00;;;;;;5072033;28;20248;-57
2021/05/30 04:37:40;;;;;;;47.50;29.13;;;8.70;4.30;;;;;;5072227;28;20213;-56
2021/05/30 04:40:08;;;;;;;48.60;30.63;;;8.70;3.70;;;;;;5071760;28;20209;-58
2021/05/30 04:42:34;;;;;;;49.63;28.60;;;8.80;4.10;;;;;;5072032;28;20205;-58
2021/05/30 04:45:00;;;;;;;48.33;29.33;;;8.80;2.80;;;;;;5071730;28;20240;-56
2021/05/30 04:47:26;;;;;;;41.90;28.20;;;8.90;1.00;;;;;;5071616;28;20205;-57
2021/05/30 04:49:53;;;;;;;45.20;28.40;;;9.00;1.00;;;;;;5071229;28;20209;-59
2021/05/30 04:52:20;;;;;;;41.30;26.37;;;9.00;1.00;;;;;;5071995;28;20206;-59
2021/05/30 04:54:46;;;;;;;43.67;27.20;;;9.00;1.00;;;;;;5071490;28;20204;-58
2021/05/30 04:57:12;;;;;;;39.67;26.53;;;9.10;1.00;;;;;;5071817;28;20241;-58
2021/05/30 04:59:38;;;;;;;39.97;25.13;;;9.20;1.00;;;;;;5069985;28;20678;-58
2021/05/30 05:02:05;;;;;;;36.17;24.73;;;9.30;1.00;;;;;;5071355;28;20270;-59
2021/05/30 05:04:31;;;;;;;38.10;24.93;;;9.30;1.00;;;;;;5071398;28;20223;-58
2021/05/30 05:06:58;;;;;;;35.90;23.43;;;9.40;1.00;;;;;;5071360;28;20227;-58
2021/05/30 05:09:24;;;;;;;36.20;25.20;;;9.50;1.00;;;;;;5071790;28;20218;-57
2021/05/30 05:11:50;;;;;;;35.00;25.53;;;9.50;1.00;;;;;;5071499;28;20206;-57
2021/05/30 05:14:16;;;;;;;35.57;24.60;;;9.50;1.00;;;;;;5070323;28;20300;-55
2021/05/30 05:16:42;;;;;;;33.00;24.03;;;9.60;1.00;;;;;;5071472;28;20221;-55
2021/05/30 05:19:09;;;;;;;33.73;24.77;;;9.70;1.00;;;;;;5071939;28;20206;-56
2021/05/30 05:21:35;;;;;;;34.17;25.00;;;9.70;1.00;;;;;;5071332;28;20205;-58
2021/05/30 05:24:02;;;;;;;34.13;23.93;;;9.80;1.00;;;;;;5073079;28;20212;-58
2021/05/30 05:26:28;;;;;;;34.77;23.37;;;9.80;1.00;;;;;;5071460;28;20593;-58
2021/05/30 05:28:54;;;;;;;30.37;22.40;;;9.90;1.00;;;;;;5071268;28;20209;-58
2021/05/30 05:31:20;;;;;;;35.30;21.27;;;10.00;1.00;;;;;;5069823;28;20207;-58
2021/05/30 05:33:46;;;;;;;30.23;20.73;;;10.10;1.00;;;;;;5071759;28;20244;-57
2021/05/30 05:36:13;;;;;;;24.00;19.00;;;10.10;1.00;;;;;;5071303;28;20223;-58
2021/05/30 05:38:39;;;;;;;25.70;18.00;;;10.20;1.00;;;;;;5072841;28;20249;-58
2021/05/30 05:41:06;;;;;;;25.00;18.40;;;10.30;1.00;;;;;;5075334;28;20241;-58
2021/05/30 05:43:32;;;;;;;24.07;18.37;;;10.30;1.00;;;;;;5074911;28;20574;-57
2021/05/30 05:45:58;;;;;;;27.40;18.13;;;10.40;1.00;;;;;;5075134;28;20236;-58
2021/05/30 05:48:24;;;;;;;22.93;16.87;;;10.50;1.00;;;;;;5075004;28;20211;-59
2021/05/30 05:50:50;;;;;;;24.03;18.07;;;10.60;1.00;;;;;;5073239;28;20211;-55
2021/05/30 05:53:17;;;;;;;23.90;17.17;;;10.80;1.00;;;;;;5075029;28;20204;-58
2021/05/30 05:55:43;;;;;;;23.67;16.90;;;10.90;1.00;;;;;;5074423;28;20232;-55
2021/05/30 05:58:10;;;;;;;24.13;16.63;;;11.00;1.00;;;;;;5074953;28;20205;-58
2021/05/30 06:00:37;;;;;;;22.47;17.10;;;11.20;99.90;;;;;;5074477;28;20603;-58
2021/05/30 06:03:04;;;;;;;22.17;17.13;;;11.30;99.90;;;;;;5074688;28;20220;-55
2021/05/30 06:05:30;;;;;;;24.77;17.07;;;11.40;99.90;;;;;;5072744;28;20235;-58
2021/05/30 06:07:57;;;;;;;19.90;15.57;;;11.50;99.90;;;;;;5074868;28;20209;-59
2021/05/30 06:10:26;;;;;;;19.47;15.20;;;11.60;99.90;;;;;;5074891;28;20208;-58
2021/05/30 06:12:53;;;;;;;20.47;15.03;;;11.70;99.90;;;;;;5074507;28;20205;-56
2021/05/30 06:15:21;;;;;;;17.97;13.83;;;11.80;99.90;;;;;;5074079;28;20225;-58
2021/05/30 06:17:51;;;;;;;20.03;15.00;;;11.90;99.90;;;;;;5074311;28;20676;-58
2021/05/30 06:20:18;;;;;;;22.93;15.40;;;11.90;99.90;;;;;;5074519;28;20209;-59
2021/05/30 06:22:44;;;;;;;17.80;14.13;;;12.00;99.90;;;;;;5073071;28;20250;-57
2021/05/30 06:25:11;;;;;;;21.00;16.87;;;12.10;99.90;;;;;;5074312;28;20611;-57
2021/05/30 06:27:37;;;;;;;19.10;15.43;;;12.00;99.90;;;;;;5073868;28;20214;-58
2021/05/30 06:30:06;;;;;;;21.47;15.40;;;12.10;99.90;;;;;;5073845;28;20209;-56
2021/05/30 06:32:33;;;;;;;20.77;15.27;;;12.20;99.90;;;;;;5074073;28;20640;-57
2021/05/30 06:34:59;;;;;;;19.73;15.47;;;12.40;99.90;;;;;;5074058;28;20706;-58
2021/05/30 06:37:25;;;;;;;19.77;14.80;;;12.50;99.90;;;;;;5073973;28;20231;-59
2021/05/30 06:39:52;;;;;;;20.50;13.90;;;12.70;99.90;;;;;;5072327;28;20665;-60
2021/05/30 06:42:18;;;;;;;19.23;14.07;;;12.90;99.90;;;;;;5074094;28;20205;-59
2021/05/30 06:44:44;;;;;;;21.70;15.13;;;13.00;99.90;;;;;;5073279;28;20228;-57
2021/05/30 06:47:11;;;;;;;23.23;15.53;;;13.10;99.90;;;;;;5073812;28;20208;-58
2021/05/30 06:49:38;;;;;;;18.97;14.80;;;13.20;99.90;;;;;;5072643;28;20675;-56
2021/05/30 06:52:04;;;;;;;20.60;14.27;;;13.10;99.90;;;;;;5073476;28;20204;-55
2021/05/30 06:54:30;;;;;;;19.33;13.60;;;13.30;99.90;;;;;;5073848;28;20209;-58
2021/05/30 06:56:57;;;;;;;15.30;12.10;;;13.60;99.90;;;;;;5072135;28;20234;-59
2021/05/30 06:59:23;;;;;;;16.67;12.07;;;13.70;99.90;;;;;;5073364;28;20208;-58
2021/05/30 07:01:49;;;;;;;14.87;11.97;;;13.90;99.90;;;;;;5073654;28;20209;-58
2021/05/30 07:04:15;;;;;;;13.13;10.37;;;13.90;99.90;;;;;;5073472;28;20272;-58
2021/05/30 07:06:42;;;;;;;15.83;10.90;;;14.10;99.90;;;;;;5073608;28;20224;-57
2021/05/30 07:09:09;;;;;;;14.33;12.00;;;14.40;99.90;;;;;;5073338;28;20253;-57
2021/05/30 07:11:35;;;;;;;12.77;10.50;;;14.50;99.90;;;;;;5071542;28;20219;-58
2021/05/30 07:14:01;;;;;;;14.70;10.53;;;14.70;99.90;;;;;;5074038;28;20211;-56
2021/05/30 07:16:27;;;;;;;13.93;11.33;;;14.80;99.90;;;;;;5073427;28;20217;-59
2021/05/30 07:18:53;;;;;;;12.90;10.57;;;15.00;99.90;;;;;;5073493;28;20261;-55
2021/05/30 07:21:19;;;;;;;14.33;9.10;;;14.90;99.90;;;;;;5072869;28;20589;-59
2021/05/30 07:23:46;;;;;;;12.40;8.80;;;15.20;99.90;;;;;;5073273;28;20613;-57
2021/05/30 07:26:13;;;;;;;13.10;9.97;;;15.30;99.90;;;;;;5072978;28;20232;-59
2021/05/30 07:28:39;;;;;;;15.77;9.90;;;15.20;99.90;;;;;;5073502;28;20318;-54
2021/05/30 07:31:05;;;;;;;14.07;9.73;;;15.20;99.90;;;;;;5071511;28;20297;-58
2021/05/30 07:33:32;;;;;;;15.33;10.47;;;15.10;99.90;;;;;;5073114;28;20201;-56
2021/05/30 07:35:58;;;;;;;15.60;9.50;;;15.20;99.90;;;;;;5072911;28;20312;-54
2021/05/30 07:38:24;;;;;;;14.80;9.87;;;15.50;99.90;;;;;;5073079;28;20205;-57
2021/05/30 07:40:51;;;;;;;12.40;9.10;;;15.60;99.90;;;;;;5072594;28;20254;-59
2021/05/30 07:43:18;;;;;;;14.63;9.77;;;15.80;99.90;;;;;;5073421;28;20281;-59
2021/05/30 07:45:44;;;;;;;11.37;9.97;;;16.00;99.90;;;;;;5073316;28;20225;-59
2021/05/30 07:48:10;;;;;;;12.07;9.40;;;16.30;99.90;;;;;;5071549;28;20254;-56
2021/05/30 07:50:37;;;;;;;13.83;9.47;;;16.10;99.90;;;;;;5070004;28;20212;-54
2021/05/30 07:53:03;;;;;;;12.90;9.83;;;15.90;99.90;;;;;;5072085;28;20592;-59
2021/05/30 07:55:29;;;;;;;14.17;10.30;;;16.10;99.90;;;;;;5092500;28;20247;-56
2021/05/30 07:57:57;;;;;;;12.97;9.13;;;15.80;99.90;;;;;;5092826;28;20683;-58
2021/05/30 08:00:24;;;;;;;11.03;9.10;;;15.70;99.90;;;;;;5093602;28;20201;-53
2021/05/30 08:02:52;;;;;;;12.47;8.47;;;16.00;99.90;;;;;;5094075;28;20231;-57
2021/05/30 08:05:20;;;;;;;12.27;8.50;;;16.10;99.90;;;;;;5071269;28;20227;-59
2021/05/30 08:07:47;;;;;;;12.33;8.23;;;16.20;99.90;;;;;;5072434;28;20296;-56
2021/05/30 08:10:13;;;;;;;11.60;8.90;;;16.10;99.90;;;;;;5072089;28;20205;-56
2021/05/30 08:12:40;;;;;;;10.87;8.43;;;16.20;99.90;;;;;;5071990;28;20617;-59
2021/05/30 08:15:10;;;;;;;9.93;7.27;;;16.40;99.90;;;;;;5071740;28;20716;-58
2021/05/30 08:17:36;;;;;;;9.83;7.20;;;16.50;99.90;;;;;;5072164;28;20213;-59
2021/05/30 08:20:04;;;;;;;13.60;7.47;;;16.70;99.90;;;;;;5066600;28;20209;-58
2021/05/30 08:22:30;;;;;;;8.27;5.90;;;16.80;99.90;;;;;;5070866;28;20228;-56
2021/05/30 08:24:57;;;;;;;7.23;6.00;;;17.10;99.90;;;;;;5071231;28;20774;-55
2021/05/30 08:27:23;;;;;;;8.10;5.83;;;17.10;99.90;;;;;;5071650;28;20208;-59
2021/05/30 08:29:49;;;;;;;9.90;6.40;;;17.30;99.90;;;;;;5071164;28;20599;-54
2021/05/30 08:32:16;;;;;;;8.53;7.07;;;17.20;99.90;;;;;;5071319;28;20212;-58
2021/05/30 08:34:44;;;;;;;11.37;6.17;;;16.90;99.90;;;;;;5070856;28;20238;-59
2021/05/30 08:37:11;;;;;;;7.83;6.17;;;17.10;99.90;;;;;;5069994;28;20209;-58
2021/05/30 08:39:37;;;;;;;9.43;6.93;;;17.10;99.90;;;;;;5070895;28;20572;-56
2021/05/30 08:42:04;;;;;;;7.17;5.83;;;17.10;99.90;;;;;;5071002;28;20216;-55
2021/05/30 08:44:30;;;;;;;9.83;5.80;;;17.30;99.90;;;;;;5071440;28;20582;-58
2021/05/30 08:46:56;;;;;;;7.53;5.40;;;17.40;99.90;;;;;;5070929;28;20225;-58
2021/05/30 08:49:23;;;;;;;9.33;5.53;;;17.50;99.90;;;;;;5071099;28;20209;-59
2021/05/30 08:51:50;;;;;;;9.50;5.90;;;17.40;99.90;;;;;;5070542;28;20224;-59
2021/05/30 08:54:18;;;;;;;6.93;5.47;;;17.40;99.90;;;;;;5089684;28;20212;-58
2021/05/30 08:56:46;;;;;;;13.23;5.70;;;17.30;99.90;;;;;;5070020;28;20274;-57
2021/05/30 08:59:27;;;;;;;6.53;4.93;;;17.40;99.90;;;;;;5071115;28;20205;-60
2021/05/30 09:01:54;;;;;;;8.30;5.60;;;17.50;99.90;;;;;;5070863;28;20208;-61
2021/05/30 09:04:30;;;;;;;6.63;4.93;;;17.70;99.90;;;;;;5070881;28;20239;-61
2021/05/30 09:06:56;;;;;;;6.53;4.57;;;17.70;99.90;;;;;;5071228;28;20220;-64
2021/05/30 09:09:23;;;;;;;6.93;4.27;;;18.00;99.90;;;;;;5070907;28;20209;-66
2021/05/30 09:11:50;;;;;;;7.73;5.00;;;17.90;99.90;;;;;;5069326;28;20235;-65
2021/05/30 09:14:19;;;;;;;5.93;4.13;;;17.90;99.90;;;;;;5068530;28;20575;-67
2021/05/30 09:16:54;;;;;;;5.90;4.70;;;18.00;99.90;;;;;;5068080;28;20225;-66
2021/05/30 09:19:36;;;;;;;5.93;4.10;;;18.10;99.90;;;;;;5073239;28;20552;-66
2021/05/30 09:22:24;;;;;;;5.23;3.83;;;18.20;99.90;;;;;;5070108;28;20665;-66
2021/05/30 09:25:18;;;;;;;6.00;4.53;;;18.40;99.90;;;;;;5070709;28;20580;-67
2021/05/30 09:27:50;;;;;;;5.40;4.03;;;18.50;99.90;;;;;;5069698;28;20201;-66
2021/05/30 09:30:22;;;;;;;4.73;3.57;;;18.40;99.90;;;;;;5070427;28;20673;-67
2021/05/30 09:33:10;;;;;;;6.20;4.20;;;18.60;99.90;;;;;;5071134;28;20201;-66
2021/05/30 09:36:02;;;;;;;5.77;4.03;;;18.60;99.90;;;;;;5070730;28;20225;-67
2021/05/30 09:38:33;;;;;;;5.20;4.23;;;18.50;99.90;;;;;;5071086;28;20231;-67
2021/05/30 09:41:01;;;;;;;5.13;4.23;;;18.60;99.90;;;;;;5070587;28;20213;-66
2021/05/30 09:43:31;;;;;;;6.30;4.10;;;18.80;99.90;;;;;;5079565;28;20239;-67
2021/05/30 09:46:06;;;;;;;5.77;4.00;;;19.00;99.90;;;;;;5073013;28;20237;-67
2021/05/30 09:48:33;;;;;;;5.10;4.20;;;18.90;99.90;;;;;;5070740;28;20212;-60
2021/05/30 09:51:05;;;;;;;6.30;4.40;;;18.90;99.90;;;;;;5071032;28;20622;-58
2021/05/30 09:53:33;;;;;;;6.17;4.40;;;18.90;99.90;;;;;;5070771;28;20237;-60
2021/05/30 09:55:59;;;;;;;5.43;4.33;;;18.80;99.90;;;;;;5071186;28;20225;-58
2021/05/30 09:58:25;;;;;;;8.10;3.77;;;18.80;99.90;;;;;;5070651;28;20278;-56
2021/05/30 10:01:04;;;;;;;5.83;3.77;;;18.80;99.90;;;;;;5070700;28;20613;-56
2021/05/30 10:03:30;;;;;;;4.23;3.80;;;18.90;99.90;;;;;;5069188;28;20726;-58
2021/05/30 10:05:59;;;;;;;5.90;3.50;;;19.00;99.90;;;;;;5070656;28;20220;-56
2021/05/30 10:08:27;;;;;;;5.03;3.20;;;18.90;99.90;;;;;;5071344;28;20258;-55
2021/05/30 10:10:53;;;;;;;4.87;3.90;;;18.90;99.90;;;;;;5070468;28;20295;-57
2021/05/30 10:13:20;;;;;;;4.13;3.30;;;18.90;99.90;;;;;;5071246;28;20648;-59
2021/05/30 10:15:46;;;;;;;4.80;3.50;;;18.90;99.90;;;;;;5070694;28;20243;-56
2021/05/30 10:18:17;;;;;;;4.97;3.50;;;18.70;99.90;;;;;;5068647;28;20205;-59
2021/05/30 10:20:43;;;;;;;4.70;2.90;;;18.60;99.90;;;;;;5070349;28;20205;-58
2021/05/30 10:23:10;;;;;;;4.80;3.00;;;18.80;99.90;;;;;;5070993;28;20213;-59
2021/05/30 10:25:38;;;;;;;4.83;3.20;;;19.00;99.90;;;;;;5073159;28;20245;-59
2021/05/30 10:28:09;;;;;;;3.30;3.00;;;19.10;99.90;;;;;;5074610;28;20246;-59
2021/05/30 10:30:36;;;;;;;5.27;3.27;;;19.20;99.90;;;;;;5074238;28;20201;-58
2021/05/30 10:33:15;;;;;;;3.60;2.80;;;19.30;99.90;;;;;;5074295;28;20217;-59
2021/05/30 10:35:43;;;;;;;4.47;3.10;;;19.40;99.90;;;;;;5071670;28;20220;-60
2021/05/30 10:38:09;;;;;;;3.00;2.67;;;19.60;99.90;;;;;;5074345;28;20210;-59
2021/05/30 10:40:39;;;;;;;4.07;2.90;;;19.70;99.90;;;;;;5074493;28;20262;-63
2021/05/30 10:43:30;;;;;;;4.87;2.60;;;19.80;99.90;;;;;;5074239;28;20207;-55
2021/05/30 10:45:59;;;;;;;4.07;2.67;;;19.80;99.90;;;;;;5073895;28;20229;-60
2021/05/30 10:48:26;;;;;;;4.30;3.07;;;19.90;99.90;;;;;;5074052;28;20213;-59
2021/05/30 10:51:03;;;;;;;3.53;2.80;;;19.90;99.90;;;;;;5073703;28;20862;-59
2021/05/30 10:53:35;;;;;;;4.23;2.53;;;19.80;99.90;;;;;;5074048;28;20303;-59
2021/05/30 10:56:21;;;;;;;3.03;2.20;;;20.00;99.90;;;;;;5073655;28;20224;-59
2021/05/30 10:59:32;;;;;;;4.60;3.10;;;20.20;99.90;;;;;;5073449;28;20612;-59
2021/05/30 11:02:01;;;;;;;2.83;2.33;;;20.30;99.90;;;;;;5073409;28;20288;-59
2021/05/30 11:04:29;;;;;;;2.23;2.00;;;20.40;99.90;;;;;;5073757;28;20292;-59
2021/05/30 11:06:57;;;;;;;4.30;2.37;;;20.30;99.90;;;;;;5072865;28;20319;-59
2021/05/30 11:09:24;;;;;;;2.97;2.37;;;20.20;99.90;;;;;;5073800;28;20209;-58
2021/05/30 11:12:19;;;;;;;4.90;2.57;;;20.20;99.90;;;;;;5067875;28;20569;-59
2021/05/30 11:15:26;;;;;;;4.00;2.17;;;20.20;99.90;;;;;;5073208;28;20556;-58
2021/05/30 11:17:55;;;;;;;2.70;2.43;;;20.10;99.90;;;;;;5037068;28;20745;-58
2021/05/30 11:20:23;;;;;;;2.70;2.13;;;20.30;99.90;;;;;;5072805;28;20208;-57
2021/05/30 11:22:52;;;;;;;4.53;2.40;;;20.40;99.90;;;;;;5072869;28;20217;-59
2021/05/30 11:25:21;;;;;;;2.23;2.03;;;20.40;99.90;;;;;;5072690;28;20311;-61
2021/05/30 11:27:56;;;;;;;2.67;2.03;;;20.30;99.90;;;;;;5072537;28;20228;-64
2021/05/30 11:30:39;;;;;;;3.33;1.90;;;20.20;99.90;;;;;;5072432;28;20250;-65
2021/05/30 11:33:07;;;;;;;28.23;16.87;;;20.20;99.90;;;;;;5072060;28;20220;-63
2021/05/30 11:35:33;;;;;;;3.90;3.30;;;20.10;99.90;;;;;;5071420;28;20225;-64
2021/05/30 11:38:00;;;;;;;4.27;2.80;;;20.20;99.90;;;;;;5072626;28;20229;-67
2021/05/30 11:40:26;;;;;;;2.53;2.33;;;20.30;99.90;;;;;;5074988;28;20212;-64
2021/05/30 11:42:54;;;;;;;3.43;2.23;;;20.20;99.90;;;;;;5073447;28;20634;-63
2021/05/30 11:45:31;;;;;;;3.30;2.33;;;20.10;99.90;;;;;;5072119;28;20282;-67
2021/05/30 11:48:03;;;;;;;3.77;2.20;;;20.10;99.90;;;;;;5072408;28;20286;-66
2021/05/30 11:50:30;;;;;;;2.87;2.13;;;20.30;99.90;;;;;;5071938;28;20538;-64
2021/05/30 11:52:56;;;;;;;3.10;1.80;;;20.40;99.90;;;;;;5071562;28;20615;-66
2021/05/30 11:55:22;;;;;;;3.20;2.13;;;20.50;99.90;;;;;;5071743;28;20236;-65
2021/05/30 11:57:49;;;;;;;4.40;2.40;;;20.60;99.90;;;;;;5072278;28;20708;-64
2021/05/30 12:00:17;;;;;;;2.60;1.77;;;20.50;99.90;;;;;;5072046;28;20200;-64
2021/05/30 12:02:44;;;;;;;3.77;2.00;;;20.30;99.90;;;;;;5071944;28;20228;-64
2021/05/30 12:05:12;;;;;;;5.10;2.17;;;20.40;99.90;;;;;;5071969;28;20229;-63
2021/05/30 12:07:39;;;;;;;4.03;2.00;;;20.50;99.90;;;;;;5071093;28;20240;-64
2021/05/30 12:10:08;;;;;;;2.27;1.90;;;20.60;99.90;;;;;;5071530;28;20205;-65
2021/05/30 12:12:37;;;;;;;2.83;1.90;;;20.60;99.90;;;;;;5071546;28;20221;-65
2021/05/30 12:15:07;;;;;;;2.90;1.97;;;20.80;99.90;;;;;;5071696;28;20765;-65
2021/05/30 12:17:34;;;;;;;8.90;5.13;;;20.80;99.90;;;;;;5071429;28;20208;-67
2021/05/30 12:20:00;;;;;;;2.57;2.37;;;20.90;99.90;;;;;;5071411;28;20256;-65
2021/05/30 12:22:28;;;;;;;1.90;1.70;;;21.10;99.90;;;;;;5071821;28;20221;-65
2021/05/30 12:24:55;;;;;;;3.23;2.30;;;21.20;99.90;;;;;;5071917;28;20589;-65
2021/05/30 12:27:22;;;;;;;2.53;2.20;;;21.00;99.90;;;;;;5071611;28;20680;-65
2021/05/30 12:29:49;;;;;;;4.00;2.17;;;20.90;99.90;;;;;;5071873;28;20208;-64
2021/05/30 12:32:16;;;;;;;3.13;2.07;;;21.10;99.90;;;;;;5071387;28;20204;-64
2021/05/30 12:34:43;;;;;;;1.73;1.30;;;21.00;99.90;;;;;;5070741;28;20208;-64
2021/05/30 12:37:10;;;;;;;3.27;2.10;;;21.00;99.90;;;;;;5071453;28;20216;-65
2021/05/30 12:39:36;;;;;;;5.17;2.97;;;21.10;99.90;;;;;;5070041;28;20255;-65
2021/05/30 12:42:06;;;;;;;3.77;3.37;;;21.20;99.90;;;;;;5071393;28;20212;-63
2021/05/30 12:44:40;;;;;;;3.30;2.30;;;21.40;99.90;;;;;;5071566;28;20590;-63
2021/05/30 12:47:09;;;;;;;3.33;2.20;;;21.40;99.90;;;;;;5070666;28;20220;-62
2021/05/30 12:49:36;;;;;;;4.67;2.20;;;21.30;99.90;;;;;;5071030;28;20205;-63